sensor_id;sensor_type;location;lat;lon;timestamp;pressure;altitude;pressure_sealevel;temperature;humidity
27729;BME280;15126;42.186;24.340;2022-09-09T00:02:18;99517.28;;;19.03;81.04
27729;BME280;15126;42.186;24.340;2022-09-09T00:04:52;99506.00;;;19.03;79.47
27729;BME280;15126;42.186;24.340;2022-09-09T00:07:34;99516.06;;;19.19;78.74
27729;BME280;15126;42.186;24.340;2022-09-09T00:10:14;99514.00;;;19.20;79.29
27729;BME280;15126;42.186;24.340;2022-09-09T00:12:51;99511.19;;;19.20;79.51
27729;BME280;15126;42.186;24.340;2022-09-09T00:15:23;99518.72;;;19.23;79.56
27729;BME280;15126;42.186;24.340;2022-09-09T00:18:00;99510.22;;;19.23;79.51
27729;BME280;15126;42.186;24.340;2022-09-09T00:20:32;99504.28;;;19.21;79.69
27729;BME280;15126;42.186;24.340;2022-09-09T00:23:10;99501.44;;;19.21;78.99
27729;BME280;15126;42.186;24.340;2022-09-09T00:25:43;99508.84;;;19.18;77.92
27729;BME280;15126;42.186;24.340;2022-09-09T00:28:16;99510.13;;;19.17;77.99
27729;BME280;15126;42.186;24.340;2022-09-09T00:30:44;99496.03;;;18.93;78.83
27729;BME280;15126;42.186;24.340;2022-09-09T00:33:16;99516.34;;;19.07;77.90
27729;BME280;15126;42.186;24.340;2022-09-09T00:35:47;99513.78;;;19.09;77.94
27729;BME280;15126;42.186;24.340;2022-09-09T00:38:18;99515.84;;;19.08;77.98
27729;BME280;15126;42.186;24.340;2022-09-09T00:40:49;99521.09;;;19.00;78.37
27729;BME280;15126;42.186;24.340;2022-09-09T00:43:25;99514.31;;;18.83;78.82
27729;BME280;15126;42.186;24.340;2022-09-09T00:48:58;99514.09;;;18.72;79.76
27729;BME280;15126;42.186;24.340;2022-09-09T00:51:34;99524.22;;;18.79;79.25
27729;BME280;15126;42.186;24.340;2022-09-09T00:54:17;99501.78;;;18.75;78.38
27729;BME280;15126;42.186;24.340;2022-09-09T00:56:54;99509.81;;;18.77;80.10
27729;BME280;15126;42.186;24.340;2022-09-09T00:59:32;99516.91;;;18.72;79.88
27729;BME280;15126;42.186;24.340;2022-09-09T01:02:03;99524.78;;;18.35;80.49
27729;BME280;15126;42.186;24.340;2022-09-09T01:04:40;99519.03;;;18.21;81.48
27729;BME280;15126;42.186;24.340;2022-09-09T01:07:13;99508.63;;;18.03;82.54
27729;BME280;15126;42.186;24.340;2022-09-09T01:09:50;99511.41;;;18.12;82.95
27729;BME280;15126;42.186;24.340;2022-09-09T01:12:27;99514.09;;;18.07;83.71
27729;BME280;15126;42.186;24.340;2022-09-09T01:15:03;99521.66;;;17.92;83.68
27729;BME280;15126;42.186;24.340;2022-09-09T01:17:32;99523.38;;;18.07;83.23
27729;BME280;15126;42.186;24.340;2022-09-09T01:20:07;99515.34;;;18.06;83.29
27729;BME280;15126;42.186;24.340;2022-09-09T01:22:44;99513.47;;;18.03;84.27
27729;BME280;15126;42.186;24.340;2022-09-09T01:28:13;99513.34;;;17.97;83.70
27729;BME280;15126;42.186;24.340;2022-09-09T01:30:42;99520.06;;;18.00;84.50
27729;BME280;15126;42.186;24.340;2022-09-09T01:33:13;99507.50;;;18.10;83.59
27729;BME280;15126;42.186;24.340;2022-09-09T01:35:45;99508.41;;;18.16;82.80
27729;BME280;15126;42.186;24.340;2022-09-09T01:38:16;99499.59;;;18.23;81.80
27729;BME280;15126;42.186;24.340;2022-09-09T01:40:43;99494.91;;;18.20;82.54
27729;BME280;15126;42.186;24.340;2022-09-09T01:43:12;99485.25;;;18.03;82.65
27729;BME280;15126;42.186;24.340;2022-09-09T01:45:41;99501.09;;;18.00;84.43
27729;BME280;15126;42.186;24.340;2022-09-09T01:48:08;99504.72;;;18.01;84.30
27729;BME280;15126;42.186;24.340;2022-09-09T01:50:35;99505.16;;;18.08;82.86
27729;BME280;15126;42.186;24.340;2022-09-09T01:53:02;99505.44;;;18.10;83.03
27729;BME280;15126;42.186;24.340;2022-09-09T01:55:33;99508.28;;;18.10;83.32
27729;BME280;15126;42.186;24.340;2022-09-09T01:58:17;99504.38;;;18.08;83.92
27729;BME280;15126;42.186;24.340;2022-09-09T02:00:55;99505.16;;;18.08;83.85
27729;BME280;15126;42.186;24.340;2022-09-09T02:03:25;99495.13;;;18.07;83.09
27729;BME280;15126;42.186;24.340;2022-09-09T02:06:00;99493.25;;;18.04;82.79
27729;BME280;15126;42.186;24.340;2022-09-09T02:08:36;99495.09;;;17.74;84.02
27729;BME280;15126;42.186;24.340;2022-09-09T02:11:10;99501.06;;;17.67;84.42
27729;BME280;15126;42.186;24.340;2022-09-09T02:13:40;99501.06;;;17.67;85.15
27729;BME280;15126;42.186;24.340;2022-09-09T02:16:13;99498.53;;;17.78;84.10
27729;BME280;15126;42.186;24.340;2022-09-09T02:18:45;99496.84;;;17.63;85.29
27729;BME280;15126;42.186;24.340;2022-09-09T02:21:15;99501.72;;;17.44;85.69
27729;BME280;15126;42.186;24.340;2022-09-09T02:23:44;99518.34;;;17.24;86.77
27729;BME280;15126;42.186;24.340;2022-09-09T02:26:14;99517.06;;;17.34;87.53
27729;BME280;15126;42.186;24.340;2022-09-09T02:28:49;99512.09;;;17.20;87.00
27729;BME280;15126;42.186;24.340;2022-09-09T02:31:22;99523.84;;;17.27;87.24
27729;BME280;15126;42.186;24.340;2022-09-09T02:33:53;99512.22;;;17.35;87.94
27729;BME280;15126;42.186;24.340;2022-09-09T02:36:24;99512.06;;;17.29;88.09
27729;BME280;15126;42.186;24.340;2022-09-09T02:38:54;99504.84;;;17.46;86.24
27729;BME280;15126;42.186;24.340;2022-09-09T02:41:25;99504.38;;;17.57;85.54
27729;BME280;15126;42.186;24.340;2022-09-09T02:43:55;99503.28;;;17.63;84.97
27729;BME280;15126;42.186;24.340;2022-09-09T02:46:31;99507.34;;;17.62;84.78
27729;BME280;15126;42.186;24.340;2022-09-09T02:49:04;99513.00;;;17.53;85.77
27729;BME280;15126;42.186;24.340;2022-09-09T02:51:39;99512.53;;;17.46;85.70
27729;BME280;15126;42.186;24.340;2022-09-09T02:54:18;99520.84;;;17.40;85.96
27729;BME280;15126;42.186;24.340;2022-09-09T02:56:50;99521.47;;;17.44;86.09
27729;BME280;15126;42.186;24.340;2022-09-09T02:59:20;99521.47;;;17.26;85.08
27729;BME280;15126;42.186;24.340;2022-09-09T03:01:47;99523.06;;;17.09;85.36
27729;BME280;15126;42.186;24.340;2022-09-09T03:04:14;99513.03;;;17.08;86.01
27729;BME280;15126;42.186;24.340;2022-09-09T03:06:41;99524.63;;;17.01;86.16
27729;BME280;15126;42.186;24.340;2022-09-09T03:09:08;99531.19;;;16.98;85.65
27729;BME280;15126;42.186;24.340;2022-09-09T03:11:35;99528.19;;;17.01;86.61
27729;BME280;15126;42.186;24.340;2022-09-09T03:14:03;99537.94;;;17.00;86.57
27729;BME280;15126;42.186;24.340;2022-09-09T03:16:32;99531.19;;;17.16;85.30
27729;BME280;15126;42.186;24.340;2022-09-09T03:18:59;99531.50;;;17.27;84.75
27729;BME280;15126;42.186;24.340;2022-09-09T03:21:26;99533.53;;;17.26;84.68
27729;BME280;15126;42.186;24.340;2022-09-09T03:23:53;99533.38;;;17.39;84.52
27729;BME280;15126;42.186;24.340;2022-09-09T03:26:20;99533.38;;;17.39;85.25
27729;BME280;15126;42.186;24.340;2022-09-09T03:28:47;99536.34;;;17.45;84.22
27729;BME280;15126;42.186;24.340;2022-09-09T03:31:15;99530.22;;;17.46;83.94
27729;BME280;15126;42.186;24.340;2022-09-09T03:33:43;99527.25;;;17.41;85.24
27729;BME280;15126;42.186;24.340;2022-09-09T03:36:10;99527.28;;;17.13;85.89
27729;BME280;15126;42.186;24.340;2022-09-09T03:38:37;99537.94;;;17.27;84.86
27729;BME280;15126;42.186;24.340;2022-09-09T03:41:04;99535.56;;;17.26;85.45
27729;BME280;15126;42.186;24.340;2022-09-09T03:43:33;99524.31;;;17.17;85.44
27729;BME280;15126;42.186;24.340;2022-09-09T03:46:00;99542.47;;;17.25;85.40
27729;BME280;15126;42.186;24.340;2022-09-09T03:48:27;99535.09;;;17.27;85.37
27729;BME280;15126;42.186;24.340;2022-09-09T03:50:56;99530.56;;;17.21;86.73
27729;BME280;15126;42.186;24.340;2022-09-09T03:53:25;99540.25;;;17.29;85.33
27729;BME280;15126;42.186;24.340;2022-09-09T03:55:54;99547.31;;;17.34;84.03
27729;BME280;15126;42.186;24.340;2022-09-09T03:58:22;99546.25;;;17.31;84.38
27729;BME280;15126;42.186;24.340;2022-09-09T04:00:56;99552.81;;;17.28;84.79
27729;BME280;15126;42.186;24.340;2022-09-09T04:03:23;99545.75;;;17.23;85.12
27729;BME280;15126;42.186;24.340;2022-09-09T04:05:51;99549.19;;;17.27;83.63
27729;BME280;15126;42.186;24.340;2022-09-09T04:08:19;99544.34;;;17.28;83.36
27729;BME280;15126;42.186;24.340;2022-09-09T04:10:47;99546.22;;;17.22;84.87
27729;BME280;15126;42.186;24.340;2022-09-09T04:13:14;99544.66;;;17.21;84.21
27729;BME280;15126;42.186;24.340;2022-09-09T04:15:43;99536.66;;;17.01;85.73
27729;BME280;15126;42.186;24.340;2022-09-09T04:18:10;99541.06;;;17.11;84.75
27729;BME280;15126;42.186;24.340;2022-09-09T04:20:38;99525.53;;;16.89;85.63
27729;BME280;15126;42.186;24.340;2022-09-09T04:23:04;99532.44;;;16.97;86.12
27729;BME280;15126;42.186;24.340;2022-09-09T04:25:33;99533.06;;;16.92;85.41
27729;BME280;15126;42.186;24.340;2022-09-09T04:28:00;99542.59;;;16.76;86.27
27729;BME280;15126;42.186;24.340;2022-09-09T04:30:27;99542.28;;;16.83;86.82
27729;BME280;15126;42.186;24.340;2022-09-09T04:32:54;99546.22;;;17.13;85.64
27729;BME280;15126;42.186;24.340;2022-09-09T04:35:21;99544.66;;;17.30;83.70
27729;BME280;15126;42.186;24.340;2022-09-09T04:37:48;99556.84;;;17.45;85.08
27729;BME280;15126;42.186;24.340;2022-09-09T04:40:15;99556.25;;;17.41;84.12
27729;BME280;15126;42.186;24.340;2022-09-09T04:42:43;99543.09;;;17.56;83.47
27729;BME280;15126;42.186;24.340;2022-09-09T04:45:10;99544.63;;;17.75;83.74
27729;BME280;15126;42.186;24.340;2022-09-09T04:47:38;99547.06;;;17.92;83.95
27729;BME280;15126;42.186;24.340;2022-09-09T04:50:07;99553.72;;;17.79;81.39
27729;BME280;15126;42.186;24.340;2022-09-09T04:52:34;99557.44;;;17.85;81.73
27729;BME280;15126;42.186;24.340;2022-09-09T04:55:02;99556.03;;;17.90;81.92
27729;BME280;15126;42.186;24.340;2022-09-09T04:57:29;99556.47;;;17.89;81.74
27729;BME280;15126;42.186;24.340;2022-09-09T04:59:59;99558.34;;;17.92;81.37
27729;BME280;15126;42.186;24.340;2022-09-09T05:02:27;99564.53;;;18.23;81.04
27729;BME280;15126;42.186;24.340;2022-09-09T05:04:55;99559.28;;;18.39;81.22
27729;BME280;15126;42.186;24.340;2022-09-09T05:07:22;99561.88;;;18.61;80.87
27729;BME280;15126;42.186;24.340;2022-09-09T05:09:49;99563.91;;;18.61;79.92
27729;BME280;15126;42.186;24.340;2022-09-09T05:12:16;99568.84;;;18.42;80.14
27729;BME280;15126;42.186;24.340;2022-09-09T05:14:43;99559.28;;;18.39;80.38
27729;BME280;15126;42.186;24.340;2022-09-09T05:17:11;99561.88;;;18.61;79.92
27729;BME280;15126;42.186;24.340;2022-09-09T05:19:38;99558.69;;;18.68;79.93
27729;BME280;15126;42.186;24.340;2022-09-09T05:22:05;99566.28;;;18.86;79.55
27729;BME280;15126;42.186;24.340;2022-09-09T05:24:32;99575.81;;;18.65;79.01
27729;BME280;15126;42.186;24.340;2022-09-09T05:26:59;99557.22;;;18.49;79.64
27729;BME280;15126;42.186;24.340;2022-09-09T05:29:27;99565.16;;;18.83;79.86
27729;BME280;15126;42.186;24.340;2022-09-09T05:31:54;99557.13;;;18.91;79.04
27729;BME280;15126;42.186;24.340;2022-09-09T05:34:23;99555.16;;;18.82;78.63
27729;BME280;15126;42.186;24.340;2022-09-09T05:36:49;99552.03;;;19.19;78.78
27729;BME280;15126;42.186;24.340;2022-09-09T05:39:17;99548.41;;;19.42;79.11
27729;BME280;15126;42.186;24.340;2022-09-09T05:41:44;99552.81;;;19.43;77.11
27729;BME280;15126;42.186;24.340;2022-09-09T05:44:11;99539.06;;;19.65;76.28
27729;BME280;15126;42.186;24.340;2022-09-09T05:46:39;99543.75;;;19.83;75.62
27729;BME280;15126;42.186;24.340;2022-09-09T05:49:05;99554.09;;;20.00;75.23
27729;BME280;15126;42.186;24.340;2022-09-09T05:51:35;99546.19;;;20.19;74.48
27729;BME280;15126;42.186;24.340;2022-09-09T05:54:01;99544.41;;;20.36;74.33
27729;BME280;15126;42.186;24.340;2022-09-09T05:56:29;99511.91;;;20.32;71.89
27729;BME280;15126;42.186;24.340;2022-09-09T05:58:56;99542.69;;;20.59;72.09
27729;BME280;15126;42.186;24.340;2022-09-09T06:01:26;99548.34;;;20.59;71.68
27729;BME280;15126;42.186;24.340;2022-09-09T06:03:54;99546.88;;;20.63;71.33
27729;BME280;15126;42.186;24.340;2022-09-09T06:06:22;99551.91;;;20.74;70.78
27729;BME280;15126;42.186;24.340;2022-09-09T06:08:52;99540.09;;;20.96;70.93
27729;BME280;15126;42.186;24.340;2022-09-09T06:11:21;99539.13;;;21.19;70.55
27729;BME280;15126;42.186;24.340;2022-09-09T06:13:48;99534.19;;;21.40;70.36
27729;BME280;15126;42.186;24.340;2022-09-09T06:16:18;99525.13;;;21.35;68.40
27729;BME280;15126;42.186;24.340;2022-09-09T06:18:45;99531.03;;;21.58;67.30
27729;BME280;15126;42.186;24.340;2022-09-09T06:21:16;99531.53;;;21.82;67.70
27729;BME280;15126;42.186;24.340;2022-09-09T06:23:43;99528.91;;;22.04;67.39
27729;BME280;15126;42.186;24.340;2022-09-09T06:26:13;99535.22;;;22.19;67.28
27729;BME280;15126;42.186;24.340;2022-09-09T06:28:40;99518.22;;;22.25;65.53
27729;BME280;15126;42.186;24.340;2022-09-09T06:31:10;99533.16;;;22.57;63.13
27729;BME280;15126;42.186;24.340;2022-09-09T06:33:38;99542.84;;;22.70;61.93
27729;BME280;15126;42.186;24.340;2022-09-09T06:36:07;99542.41;;;22.88;63.33
27729;BME280;15126;42.186;24.340;2022-09-09T06:38:36;99539.63;;;23.05;62.43
27729;BME280;15126;42.186;24.340;2022-09-09T06:41:04;99529.59;;;23.09;61.57
27729;BME280;15126;42.186;24.340;2022-09-09T06:43:32;99526.03;;;23.31;60.93
27729;BME280;15126;42.186;24.340;2022-09-09T06:46:01;99520.84;;;23.35;59.30
27729;BME280;15126;42.186;24.340;2022-09-09T06:48:28;99533.88;;;23.47;60.81
27729;BME280;15126;42.186;24.340;2022-09-09T06:51:03;99531.03;;;23.53;57.52
27729;BME280;15126;42.186;24.340;2022-09-09T06:53:30;99544.00;;;23.65;61.56
27729;BME280;15126;42.186;24.340;2022-09-09T06:55:59;99534.69;;;23.76;59.62
27729;BME280;15126;42.186;24.340;2022-09-09T06:58:26;99531.84;;;23.76;58.62
27729;BME280;15126;42.186;24.340;2022-09-09T07:01:01;99528.75;;;23.85;58.56
27729;BME280;15126;42.186;24.340;2022-09-09T07:03:28;99535.00;;;24.11;60.38
27729;BME280;15126;42.186;24.340;2022-09-09T07:05:55;99538.63;;;24.28;54.78
27729;BME280;15126;42.186;24.340;2022-09-09T07:08:22;99526.69;;;24.35;58.88
27729;BME280;15126;42.186;24.340;2022-09-09T07:10:50;99519.19;;;24.38;61.51
27729;BME280;15126;42.186;24.340;2022-09-09T07:13:19;99534.97;;;24.44;56.33
27729;BME280;15126;42.186;24.340;2022-09-09T07:15:46;99527.97;;;24.62;57.84
27729;BME280;15126;42.186;24.340;2022-09-09T07:18:14;99538.59;;;24.61;59.76
27729;BME280;15126;42.186;24.340;2022-09-09T07:20:41;99536.75;;;24.75;52.47
27729;BME280;15126;42.186;24.340;2022-09-09T07:23:08;99533.63;;;24.73;58.33
27729;BME280;15126;42.186;24.340;2022-09-09T07:25:34;99541.09;;;24.93;54.96
27729;BME280;15126;42.186;24.340;2022-09-09T07:28:01;99535.41;;;24.93;54.15
27729;BME280;15126;42.186;24.340;2022-09-09T07:30:28;99540.38;;;24.87;53.04
27729;BME280;15126;42.186;24.340;2022-09-09T07:32:55;99532.84;;;24.89;57.53
27729;BME280;15126;42.186;24.340;2022-09-09T07:35:25;99528.91;;;24.98;56.24
27729;BME280;15126;42.186;24.340;2022-09-09T07:37:52;99518.97;;;25.15;51.95
27729;BME280;15126;42.186;24.340;2022-09-09T07:40:19;99522.00;;;25.28;56.78
27729;BME280;15126;42.186;24.340;2022-09-09T07:42:47;99526.06;;;25.44;54.79
27729;BME280;15126;42.186;24.340;2022-09-09T07:45:14;99528.38;;;25.57;54.74
27729;BME280;15126;42.186;24.340;2022-09-09T07:47:41;99525.69;;;25.70;56.40
27729;BME280;15126;42.186;24.340;2022-09-09T07:50:08;99530.75;;;25.88;54.73
27729;BME280;15126;42.186;24.340;2022-09-09T07:52:36;99514.22;;;25.75;52.63
27729;BME280;15126;42.186;24.340;2022-09-09T07:55:03;99507.47;;;25.78;49.20
27729;BME280;15126;42.186;24.340;2022-09-09T07:57:31;99521.66;;;25.89;51.04
27729;BME280;15126;42.186;24.340;2022-09-09T07:59:58;99511.22;;;25.97;51.27
27729;BME280;15126;42.186;24.340;2022-09-09T08:02:25;99518.97;;;26.02;52.21
27729;BME280;15126;42.186;24.340;2022-09-09T08:04:54;99521.81;;;26.02;48.73
27729;BME280;15126;42.186;24.340;2022-09-09T08:07:21;99523.03;;;26.13;51.36
27729;BME280;15126;42.186;24.340;2022-09-09T08:09:50;99517.59;;;26.09;49.95
27729;BME280;15126;42.186;24.340;2022-09-09T08:12:17;99514.44;;;26.13;47.58
27729;BME280;15126;42.186;24.340;2022-09-09T08:14:43;99519.91;;;26.16;48.98
27729;BME280;15126;42.186;24.340;2022-09-09T08:17:10;99512.19;;;26.06;49.08
27729;BME280;15126;42.186;24.340;2022-09-09T08:19:37;99505.72;;;25.99;50.79
27729;BME280;15126;42.186;24.340;2022-09-09T08:22:04;99503.38;;;26.03;48.94
27729;BME280;15126;42.186;24.340;2022-09-09T08:24:31;99507.28;;;26.00;49.57
27729;BME280;15126;42.186;24.340;2022-09-09T08:26:59;99496.25;;;26.16;49.93
27729;BME280;15126;42.186;24.340;2022-09-09T08:29:25;99497.94;;;26.30;51.10
27729;BME280;15126;42.186;24.340;2022-09-09T08:31:55;99500.03;;;26.29;47.59
27729;BME280;15126;42.186;24.340;2022-09-09T08:34:23;99498.13;;;26.08;50.20
27729;BME280;15126;42.186;24.340;2022-09-09T08:36:52;99506.34;;;26.22;52.45
27729;BME280;15126;42.186;24.340;2022-09-09T08:39:20;99498.97;;;26.32;48.81
27729;BME280;15126;42.186;24.340;2022-09-09T08:42:02;99492.94;;;26.36;50.94
27729;BME280;15126;42.186;24.340;2022-09-09T08:44:43;99481.19;;;26.39;50.41
27729;BME280;15126;42.186;24.340;2022-09-09T08:47:20;99481.41;;;26.47;48.84
27729;BME280;15126;42.186;24.340;2022-09-09T08:50:00;99483.88;;;26.56;48.13
27729;BME280;15126;42.186;24.340;2022-09-09T08:52:31;99488.00;;;26.60;48.69
27729;BME280;15126;42.186;24.340;2022-09-09T08:55:10;99484.13;;;26.58;48.70
27729;BME280;15126;42.186;24.340;2022-09-09T08:57:41;99483.34;;;26.33;49.87
27729;BME280;15126;42.186;24.340;2022-09-09T09:00:10;99470.31;;;26.38;50.42
27729;BME280;15126;42.186;24.340;2022-09-09T09:02:44;99475.06;;;26.54;51.44
27729;BME280;15126;42.186;24.340;2022-09-09T09:05:20;99477.50;;;26.69;51.48
27729;BME280;15126;42.186;24.340;2022-09-09T09:07:59;99474.81;;;26.76;47.93
27729;BME280;15126;42.186;24.340;2022-09-09T09:10:41;99476.34;;;26.77;49.61
27729;BME280;15126;42.186;24.340;2022-09-09T09:13:15;99459.34;;;26.66;49.80
27729;BME280;15126;42.186;24.340;2022-09-09T09:15:45;99465.28;;;26.92;50.65
27729;BME280;15126;42.186;24.340;2022-09-09T09:18:14;99472.72;;;27.01;47.85
27729;BME280;15126;42.186;24.340;2022-09-09T09:20:47;99456.75;;;26.87;48.07
27729;BME280;15126;42.186;24.340;2022-09-09T09:23:21;99467.91;;;27.09;49.33
27729;BME280;15126;42.186;24.340;2022-09-09T09:25:48;99462.28;;;27.03;46.38
27729;BME280;15126;42.186;24.340;2022-09-09T09:28:22;99450.19;;;27.10;49.54
27729;BME280;15126;42.186;24.340;2022-09-09T09:30:53;99447.94;;;27.03;47.72
27729;BME280;15126;42.186;24.340;2022-09-09T09:33:27;99436.16;;;27.07;47.59
27729;BME280;15126;42.186;24.340;2022-09-09T09:35:56;99433.06;;;27.05;47.26
27729;BME280;15126;42.186;24.340;2022-09-09T09:38:26;99435.09;;;26.91;48.28
27729;BME280;15126;42.186;24.340;2022-09-09T09:40:55;99420.53;;;27.08;49.47
27729;BME280;15126;42.186;24.340;2022-09-09T09:43:26;99416.03;;;27.12;47.53
27729;BME280;15126;42.186;24.340;2022-09-09T09:45:54;99415.34;;;27.25;47.40
27729;BME280;15126;42.186;24.340;2022-09-09T09:48:24;99430.91;;;27.30;46.93
27729;BME280;15126;42.186;24.340;2022-09-09T09:50:52;99419.44;;;27.30;46.84
27729;BME280;15126;42.186;24.340;2022-09-09T09:53:23;99429.47;;;27.42;50.86
27729;BME280;15126;42.186;24.340;2022-09-09T09:55:55;99417.13;;;27.47;49.61
27729;BME280;15126;42.186;24.340;2022-09-09T09:58:23;99422.44;;;27.56;49.69
27729;BME280;15126;42.186;24.340;2022-09-09T10:00:53;99425.13;;;27.67;48.88
27729;BME280;15126;42.186;24.340;2022-09-09T10:03:26;99420.94;;;27.68;47.55
27729;BME280;15126;42.186;24.340;2022-09-09T10:05:54;99422.94;;;27.73;44.63
27729;BME280;15126;42.186;24.340;2022-09-09T10:08:23;99425.84;;;27.86;44.63
27729;BME280;15126;42.186;24.340;2022-09-09T10:11:09;99413.09;;;28.00;46.81
27729;BME280;15126;42.186;24.340;2022-09-09T10:13:49;99407.06;;;28.04;45.89
27729;BME280;15126;42.186;24.340;2022-09-09T10:16:31;99401.22;;;28.22;49.07
27729;BME280;15126;42.186;24.340;2022-09-09T10:19:05;99413.16;;;28.26;44.44
27729;BME280;15126;42.186;24.340;2022-09-09T10:21:56;99408.75;;;28.25;46.25
27729;BME280;15126;42.186;24.340;2022-09-09T10:24:52;99393.50;;;28.17;46.83
27729;BME280;15126;42.186;24.340;2022-09-09T10:27:26;99403.22;;;28.27;48.17
27729;BME280;15126;42.186;24.340;2022-09-09T10:30:11;99395.94;;;28.26;45.22
27729;BME280;15126;42.186;24.340;2022-09-09T10:32:48;99385.34;;;28.21;46.08
27729;BME280;15126;42.186;24.340;2022-09-09T10:35:26;99378.94;;;28.15;45.53
27729;BME280;15126;42.186;24.340;2022-09-09T10:38:12;99392.63;;;28.35;47.53
27729;BME280;15126;42.186;24.340;2022-09-09T10:40:44;99398.69;;;28.32;44.10
27729;BME280;15126;42.186;24.340;2022-09-09T10:43:26;99394.84;;;28.43;47.76
27729;BME280;15126;42.186;24.340;2022-09-09T10:46:03;99393.50;;;28.44;47.42
27729;BME280;15126;42.186;24.340;2022-09-09T10:48:43;99383.38;;;28.43;47.51
27729;BME280;15126;42.186;24.340;2022-09-09T10:51:23;99381.34;;;28.38;47.42
27729;BME280;15126;42.186;24.340;2022-09-09T10:57:08;99370.31;;;28.55;43.88
27729;BME280;15126;42.186;24.340;2022-09-09T10:59:41;99371.44;;;28.65;44.59
27729;BME280;15126;42.186;24.340;2022-09-09T11:02:14;99377.16;;;28.78;44.31
27729;BME280;15126;42.186;24.340;2022-09-09T11:04:49;99368.56;;;28.78;43.63
27729;BME280;15126;42.186;24.340;2022-09-09T11:07:25;99360.16;;;28.80;46.28
27729;BME280;15126;42.186;24.340;2022-09-09T11:09:59;99365.66;;;28.91;45.93
27729;BME280;15126;42.186;24.340;2022-09-09T11:12:30;99362.84;;;28.99;43.83
27729;BME280;15126;42.186;24.340;2022-09-09T11:15:01;99373.56;;;28.98;43.32
27729;BME280;15126;42.186;24.340;2022-09-09T11:17:38;99371.44;;;29.12;44.98
27729;BME280;15126;42.186;24.340;2022-09-09T11:20:13;99370.25;;;29.07;46.58
27729;BME280;15126;42.186;24.340;2022-09-09T11:22:45;99365.44;;;29.23;47.93
27729;BME280;15126;42.186;24.340;2022-09-09T11:25:15;99365.53;;;29.30;45.93
27729;BME280;15126;42.186;24.340;2022-09-09T11:27:56;99363.72;;;29.07;46.35
27729;BME280;15126;42.186;24.340;2022-09-09T11:30:33;99359.16;;;29.24;48.13
27729;BME280;15126;42.186;24.340;2022-09-09T11:36:19;99336.72;;;29.23;45.93
27729;BME280;15126;42.186;24.340;2022-09-09T11:38:51;99342.22;;;29.21;45.99
27729;BME280;15126;42.186;24.340;2022-09-09T11:41:20;99338.13;;;29.50;46.71
27729;BME280;15126;42.186;24.340;2022-09-09T11:43:48;99330.47;;;29.52;43.93
27729;BME280;15126;42.186;24.340;2022-09-09T11:46:18;99326.00;;;29.23;45.22
27729;BME280;15126;42.186;24.340;2022-09-09T11:48:58;99326.63;;;29.50;46.84
27729;BME280;15126;42.186;24.340;2022-09-09T11:51:28;99318.97;;;29.52;43.61
27729;BME280;15126;42.186;24.340;2022-09-09T11:53:57;99332.56;;;29.52;44.53
27729;BME280;15126;42.186;24.340;2022-09-09T11:56:28;99328.41;;;29.19;45.50
27729;BME280;15126;42.186;24.340;2022-09-09T11:59:03;99314.75;;;29.12;46.13
27729;BME280;15126;42.186;24.340;2022-09-09T12:01:36;99319.56;;;29.17;45.26
27729;BME280;15126;42.186;24.340;2022-09-09T12:07:23;99312.94;;;29.22;45.28
27729;BME280;15126;42.186;24.340;2022-09-09T12:09:56;99312.34;;;29.03;45.61
27729;BME280;15126;42.186;24.340;2022-09-09T12:12:31;99304.56;;;29.24;46.27
27729;BME280;15126;42.186;24.340;2022-09-09T12:15:24;99310.78;;;29.36;46.14
27729;BME280;15126;42.186;24.340;2022-09-09T12:17:54;99308.31;;;29.61;45.03
27729;BME280;15126;42.186;24.340;2022-09-09T12:20:23;99303.25;;;29.95;44.70
27729;BME280;15126;42.186;24.340;2022-09-09T12:23:17;99307.44;;;30.22;45.46
27729;BME280;15126;42.186;24.340;2022-09-09T12:25:56;99304.47;;;30.07;43.66
27729;BME280;15126;42.186;24.340;2022-09-09T12:28:27;99291.50;;;30.21;44.48
27729;BME280;15126;42.186;24.340;2022-09-09T12:31:01;99293.78;;;30.23;42.99
27729;BME280;15126;42.186;24.340;2022-09-09T12:33:34;99287.06;;;30.48;42.60
27729;BME280;15126;42.186;24.340;2022-09-09T12:36:03;99283.25;;;30.61;43.19
27729;BME280;15126;42.186;24.340;2022-09-09T12:38:36;99282.72;;;30.78;42.93
27729;BME280;15126;42.186;24.340;2022-09-09T12:41:03;99284.81;;;30.70;41.64
27729;BME280;15126;42.186;24.340;2022-09-09T12:43:30;99266.56;;;30.59;43.66
27729;BME280;15126;42.186;24.340;2022-09-09T12:45:59;99284.50;;;30.37;44.96
27729;BME280;15126;42.186;24.340;2022-09-09T12:48:31;99293.06;;;29.94;43.61
27729;BME280;15126;42.186;24.340;2022-09-09T12:51:00;99288.97;;;30.18;43.98
27729;BME280;15126;42.186;24.340;2022-09-09T12:53:31;99283.91;;;30.03;45.64
27729;BME280;15126;42.186;24.340;2022-09-09T12:56:03;99288.84;;;29.25;43.99
27729;BME280;15126;42.186;24.340;2022-09-09T12:58:31;99276.16;;;29.41;44.06
27729;BME280;15126;42.186;24.340;2022-09-09T13:01:02;99285.97;;;29.46;46.90
27729;BME280;15126;42.186;24.340;2022-09-09T13:03:30;99280.44;;;29.27;46.81
27729;BME280;15126;42.186;24.340;2022-09-09T13:05:58;99265.50;;;29.29;47.90
27729;BME280;15126;42.186;24.340;2022-09-09T13:08:26;99262.59;;;29.08;46.15
27729;BME280;15126;42.186;24.340;2022-09-09T13:10:55;99262.22;;;28.70;46.99
27729;BME280;15126;42.186;24.340;2022-09-09T13:13:28;99246.47;;;28.64;48.23
27729;BME280;15126;42.186;24.340;2022-09-09T13:15:57;99251.09;;;28.67;48.15
27729;BME280;15126;42.186;24.340;2022-09-09T13:18:27;99244.34;;;28.51;48.67
27729;BME280;15126;42.186;24.340;2022-09-09T13:20:56;99240.34;;;28.33;50.50
27729;BME280;15126;42.186;24.340;2022-09-09T13:23:27;99236.88;;;28.48;49.97
27729;BME280;15126;42.186;24.340;2022-09-09T13:25:56;99235.63;;;28.57;49.59